sensor_id;sensor_type;location;lat;lon;timestamp;temperature;humidity
7445;DHT22;3764;48.126;11.594;2022-09-09T00:02:02;17.50;99.90
7445;DHT22;3764;48.126;11.594;2022-09-09T00:04:33;17.50;99.90
7445;DHT22;3764;48.126;11.594;2022-09-09T00:07:04;17.50;99.90
7445;DHT22;3764;48.126;11.594;2022-09-09T00:09:39;17.50;99.90
7445;DHT22;3764;48.126;11.594;2022-09-09T00:12:11;17.50;99.90
7445;DHT22;3764;48.126;11.594;2022-09-09T00:14:47;17.50;99.90
7445;DHT22;3764;48.126;11.594;2022-09-09T00:17:28;17.50;99.90
7445;DHT22;3764;48.126;11.594;2022-09-09T00:20:01;17.50;99.90
7445;DHT22;3764;48.126;11.594;2022-09-09T00:22:30;17.50;99.90
7445;DHT22;3764;48.126;11.594;2022-09-09T00:25:10;17.50;99.90
7445;DHT22;3764;48.126;11.594;2022-09-09T00:27:41;17.50;99.90
7445;DHT22;3764;48.126;11.594;2022-09-09T00:30:18;17.40;99.90
7445;DHT22;3764;48.126;11.594;2022-09-09T00:32:49;17.40;99.90
7445;DHT22;3764;48.126;11.594;2022-09-09T00:35:21;17.40;99.90
7445;DHT22;3764;48.126;11.594;2022-09-09T00:37:52;17.40;99.90
7445;DHT22;3764;48.126;11.594;2022-09-09T00:40:26;17.40;99.90
7445;DHT22;3764;48.126;11.594;2022-09-09T00:43:09;17.40;99.90
7445;DHT22;3764;48.126;11.594;2022-09-09T00:45:56;17.50;99.90
7445;DHT22;3764;48.126;11.594;2022-09-09T00:48:31;17.50;99.90
7445;DHT22;3764;48.126;11.594;2022-09-09T00:51:09;17.40;99.90
7445;DHT22;3764;48.126;11.594;2022-09-09T00:53:54;17.40;99.90
7445;DHT22;3764;48.126;11.594;2022-09-09T00:56:26;17.30;99.90
7445;DHT22;3764;48.126;11.594;2022-09-09T00:59:01;17.30;99.90
7445;DHT22;3764;48.126;11.594;2022-09-09T01:01:33;17.30;99.90
7445;DHT22;3764;48.126;11.594;2022-09-09T01:04:03;17.30;99.90
7445;DHT22;3764;48.126;11.594;2022-09-09T01:06:34;17.40;99.90
7445;DHT22;3764;48.126;11.594;2022-09-09T01:09:14;17.40;99.90
7445;DHT22;3764;48.126;11.594;2022-09-09T01:11:51;17.40;99.90
7445;DHT22;3764;48.126;11.594;2022-09-09T01:14:30;17.40;99.90
7445;DHT22;3764;48.126;11.594;2022-09-09T01:17:04;17.30;99.90
7445;DHT22;3764;48.126;11.594;2022-09-09T01:19:39;17.10;99.90
7445;DHT22;3764;48.126;11.594;2022-09-09T01:22:13;17.00;99.90
7445;DHT22;3764;48.126;11.594;2022-09-09T01:27:56;16.70;99.90
7445;DHT22;3764;48.126;11.594;2022-09-09T01:30:25;16.70;99.90
7445;DHT22;3764;48.126;11.594;2022-09-09T01:32:55;16.60;99.90
7445;DHT22;3764;48.126;11.594;2022-09-09T01:35:32;16.60;99.90
7445;DHT22;3764;48.126;11.594;2022-09-09T01:38:01;16.60;99.90
7445;DHT22;3764;48.126;11.594;2022-09-09T01:40:28;16.60;99.90
7445;DHT22;3764;48.126;11.594;2022-09-09T01:42:57;16.60;99.90
7445;DHT22;3764;48.126;11.594;2022-09-09T01:45:24;16.60;99.90
7445;DHT22;3764;48.126;11.594;2022-09-09T01:47:52;16.60;99.90
7445;DHT22;3764;48.126;11.594;2022-09-09T01:50:20;16.50;99.90
7445;DHT22;3764;48.126;11.594;2022-09-09T01:52:50;16.50;99.90
7445;DHT22;3764;48.126;11.594;2022-09-09T01:55:27;16.40;99.90
7445;DHT22;3764;48.126;11.594;2022-09-09T01:58:07;16.40;99.90
7445;DHT22;3764;48.126;11.594;2022-09-09T02:00:38;16.40;99.90
7445;DHT22;3764;48.126;11.594;2022-09-09T02:03:13;16.50;99.90
7445;DHT22;3764;48.126;11.594;2022-09-09T02:05:47;16.60;99.90
7445;DHT22;3764;48.126;11.594;2022-09-09T02:08:20;16.60;99.90
7445;DHT22;3764;48.126;11.594;2022-09-09T02:10:52;16.70;99.90
7445;DHT22;3764;48.126;11.594;2022-09-09T02:13:22;16.70;99.90
7445;DHT22;3764;48.126;11.594;2022-09-09T02:15:53;16.60;99.90
7445;DHT22;3764;48.126;11.594;2022-09-09T02:18:26;16.60;99.90
7445;DHT22;3764;48.126;11.594;2022-09-09T02:20:54;16.50;99.90
7445;DHT22;3764;48.126;11.594;2022-09-09T02:23:23;16.60;99.90
7445;DHT22;3764;48.126;11.594;2022-09-09T02:25:52;16.60;99.90
7445;DHT22;3764;48.126;11.594;2022-09-09T02:28:24;16.70;99.90
7445;DHT22;3764;48.126;11.594;2022-09-09T02:30:53;16.70;99.90
7445;DHT22;3764;48.126;11.594;2022-09-09T02:33:23;16.80;99.90
7445;DHT22;3764;48.126;11.594;2022-09-09T02:35:52;16.80;99.90
7445;DHT22;3764;48.126;11.594;2022-09-09T02:38:24;16.90;99.90
7445;DHT22;3764;48.126;11.594;2022-09-09T02:40:53;16.90;99.90
7445;DHT22;3764;48.126;11.594;2022-09-09T02:43:21;16.80;99.90
7445;DHT22;3764;48.126;11.594;2022-09-09T02:46:07;16.70;99.90
7445;DHT22;3764;48.126;11.594;2022-09-09T02:48:40;16.60;99.90
7445;DHT22;3764;48.126;11.594;2022-09-09T02:51:18;16.40;99.90
7445;DHT22;3764;48.126;11.594;2022-09-09T02:53:51;16.30;99.90
7445;DHT22;3764;48.126;11.594;2022-09-09T02:56:26;16.20;99.90
7445;DHT22;3764;48.126;11.594;2022-09-09T02:58:56;16.20;99.90
7445;DHT22;3764;48.126;11.594;2022-09-09T03:01:24;16.20;99.90
7445;DHT22;3764;48.126;11.594;2022-09-09T03:03:51;16.20;99.90
7445;DHT22;3764;48.126;11.594;2022-09-09T03:06:18;16.20;99.90
7445;DHT22;3764;48.126;11.594;2022-09-09T03:08:45;16.30;99.90
7445;DHT22;3764;48.126;11.594;2022-09-09T03:11:12;16.20;99.90
7445;DHT22;3764;48.126;11.594;2022-09-09T03:13:39;16.30;99.90
7445;DHT22;3764;48.126;11.594;2022-09-09T03:16:08;16.30;99.90
7445;DHT22;3764;48.126;11.594;2022-09-09T03:18:35;16.20;99.90
7445;DHT22;3764;48.126;11.594;2022-09-09T03:21:02;16.20;99.90
7445;DHT22;3764;48.126;11.594;2022-09-09T03:23:29;16.10;99.90
7445;DHT22;3764;48.126;11.594;2022-09-09T03:25:56;16.20;99.90
7445;DHT22;3764;48.126;11.594;2022-09-09T03:28:24;16.10;99.90
7445;DHT22;3764;48.126;11.594;2022-09-09T03:30:59;16.20;99.90
7445;DHT22;3764;48.126;11.594;2022-09-09T03:33:27;16.20;99.90
7445;DHT22;3764;48.126;11.594;2022-09-09T03:35:55;16.30;99.90
7445;DHT22;3764;48.126;11.594;2022-09-09T03:38:22;16.30;99.90
7445;DHT22;3764;48.126;11.594;2022-09-09T03:40:50;16.30;99.90
7445;DHT22;3764;48.126;11.594;2022-09-09T03:43:21;16.30;99.90
7445;DHT22;3764;48.126;11.594;2022-09-09T03:45:48;16.30;99.90
7445;DHT22;3764;48.126;11.594;2022-09-09T03:48:16;16.20;99.90
7445;DHT22;3764;48.126;11.594;2022-09-09T03:50:48;16.20;99.90
7445;DHT22;3764;48.126;11.594;2022-09-09T03:53:17;16.20;99.90
7445;DHT22;3764;48.126;11.594;2022-09-09T03:55:44;16.20;99.90
7445;DHT22;3764;48.126;11.594;2022-09-09T03:58:12;16.20;99.90
7445;DHT22;3764;48.126;11.594;2022-09-09T04:00:39;16.10;99.90
7445;DHT22;3764;48.126;11.594;2022-09-09T04:03:08;16.10;99.90
7445;DHT22;3764;48.126;11.594;2022-09-09T04:05:35;16.00;99.90
7445;DHT22;3764;48.126;11.594;2022-09-09T04:08:06;16.00;99.90
7445;DHT22;3764;48.126;11.594;2022-09-09T04:10:34;16.00;99.90
7445;DHT22;3764;48.126;11.594;2022-09-09T04:13:02;15.90;99.90
7445;DHT22;3764;48.126;11.594;2022-09-09T04:15:29;15.80;99.90
7445;DHT22;3764;48.126;11.594;2022-09-09T04:17:56;15.90;99.90
7445;DHT22;3764;48.126;11.594;2022-09-09T04:20:23;15.80;99.90
7445;DHT22;3764;48.126;11.594;2022-09-09T04:22:50;15.80;99.90
7445;DHT22;3764;48.126;11.594;2022-09-09T04:25:19;15.80;99.90
7445;DHT22;3764;48.126;11.594;2022-09-09T04:27:46;15.80;99.90
7445;DHT22;3764;48.126;11.594;2022-09-09T04:30:13;15.80;99.90
7445;DHT22;3764;48.126;11.594;2022-09-09T04:32:40;15.80;99.90
7445;DHT22;3764;48.126;11.594;2022-09-09T04:35:07;15.80;99.90
7445;DHT22;3764;48.126;11.594;2022-09-09T04:37:35;15.90;99.90
7445;DHT22;3764;48.126;11.594;2022-09-09T04:40:02;16.00;99.90
7445;DHT22;3764;48.126;11.594;2022-09-09T04:42:34;16.10;99.90
7445;DHT22;3764;48.126;11.594;2022-09-09T04:45:01;16.10;99.90
7445;DHT22;3764;48.126;11.594;2022-09-09T04:47:28;16.20;99.90
7445;DHT22;3764;48.126;11.594;2022-09-09T04:49:55;16.20;99.90
7445;DHT22;3764;48.126;11.594;2022-09-09T04:52:22;16.20;99.90
7445;DHT22;3764;48.126;11.594;2022-09-09T04:54:49;16.20;99.90
7445;DHT22;3764;48.126;11.594;2022-09-09T04:57:16;16.20;99.90
7445;DHT22;3764;48.126;11.594;2022-09-09T04:59:45;16.20;99.90
7445;DHT22;3764;48.126;11.594;2022-09-09T05:02:12;16.10;99.90
7445;DHT22;3764;48.126;11.594;2022-09-09T05:04:39;16.10;99.90
7445;DHT22;3764;48.126;11.594;2022-09-09T05:07:06;16.20;99.90
7445;DHT22;3764;48.126;11.594;2022-09-09T05:09:33;16.20;99.90
7445;DHT22;3764;48.126;11.594;2022-09-09T05:12:01;16.20;99.90
7445;DHT22;3764;48.126;11.594;2022-09-09T05:14:28;16.30;99.90
7445;DHT22;3764;48.126;11.594;2022-09-09T05:16:57;16.30;99.90
7445;DHT22;3764;48.126;11.594;2022-09-09T05:19:24;16.10;99.90
7445;DHT22;3764;48.126;11.594;2022-09-09T05:21:51;16.00;99.90
7445;DHT22;3764;48.126;11.594;2022-09-09T05:24:18;15.90;99.90
7445;DHT22;3764;48.126;11.594;2022-09-09T05:26:45;15.90;99.90
7445;DHT22;3764;48.126;11.594;2022-09-09T05:29:14;15.90;99.90
7445;DHT22;3764;48.126;11.594;2022-09-09T05:31:44;15.80;99.90
7445;DHT22;3764;48.126;11.594;2022-09-09T05:34:14;15.90;99.90
7445;DHT22;3764;48.126;11.594;2022-09-09T05:36:41;15.80;99.90
7445;DHT22;3764;48.126;11.594;2022-09-09T05:39:08;15.80;99.90
7445;DHT22;3764;48.126;11.594;2022-09-09T05:41:37;15.70;99.90
7445;DHT22;3764;48.126;11.594;2022-09-09T05:44:05;15.70;99.90
7445;DHT22;3764;48.126;11.594;2022-09-09T05:46:32;15.70;99.90
7445;DHT22;3764;48.126;11.594;2022-09-09T05:48:59;15.70;99.90
7445;DHT22;3764;48.126;11.594;2022-09-09T05:51:28;15.70;99.90
7445;DHT22;3764;48.126;11.594;2022-09-09T05:53:56;15.70;99.90
7445;DHT22;3764;48.126;11.594;2022-09-09T05:56:26;15.70;99.90
7445;DHT22;3764;48.126;11.594;2022-09-09T05:58:54;15.70;99.90
7445;DHT22;3764;48.126;11.594;2022-09-09T06:01:23;15.70;99.90
7445;DHT22;3764;48.126;11.594;2022-09-09T06:03:50;15.70;99.90
7445;DHT22;3764;48.126;11.594;2022-09-09T06:06:19;15.70;99.90
7445;DHT22;3764;48.126;11.594;2022-09-09T06:08:51;15.70;99.90
7445;DHT22;3764;48.126;11.594;2022-09-09T06:11:20;15.70;99.90
7445;DHT22;3764;48.126;11.594;2022-09-09T06:13:47;15.70;99.90
7445;DHT22;3764;48.126;11.594;2022-09-09T06:16:18;15.70;99.90
7445;DHT22;3764;48.126;11.594;2022-09-09T06:18:45;15.80;99.90
7445;DHT22;3764;48.126;11.594;2022-09-09T06:21:17;15.80;99.90
7445;DHT22;3764;48.126;11.594;2022-09-09T06:23:46;15.90;99.90
7445;DHT22;3764;48.126;11.594;2022-09-09T06:26:16;15.90;99.90
7445;DHT22;3764;48.126;11.594;2022-09-09T06:28:44;15.90;99.90
7445;DHT22;3764;48.126;11.594;2022-09-09T06:31:14;15.90;99.90
7445;DHT22;3764;48.126;11.594;2022-09-09T06:33:43;15.90;99.90
7445;DHT22;3764;48.126;11.594;2022-09-09T06:36:12;15.90;99.90
7445;DHT22;3764;48.126;11.594;2022-09-09T06:38:39;15.90;99.90
7445;DHT22;3764;48.126;11.594;2022-09-09T06:41:12;15.90;99.90
7445;DHT22;3764;48.126;11.594;2022-09-09T06:43:41;15.90;99.90
7445;DHT22;3764;48.126;11.594;2022-09-09T06:46:11;16.00;99.90
7445;DHT22;3764;48.126;11.594;2022-09-09T06:48:39;16.00;99.90
7445;DHT22;3764;48.126;11.594;2022-09-09T06:51:08;16.00;99.90
7445;DHT22;3764;48.126;11.594;2022-09-09T06:53:37;16.00;99.90
7445;DHT22;3764;48.126;11.594;2022-09-09T06:56:19;16.10;99.90
7445;DHT22;3764;48.126;11.594;2022-09-09T06:58:51;16.10;99.90
7445;DHT22;3764;48.126;11.594;2022-09-09T07:01:20;16.10;99.90
7445;DHT22;3764;48.126;11.594;2022-09-09T07:03:50;16.10;99.90
7445;DHT22;3764;48.126;11.594;2022-09-09T07:06:19;16.10;99.90
7445;DHT22;3764;48.126;11.594;2022-09-09T07:08:49;16.20;99.90
7445;DHT22;3764;48.126;11.594;2022-09-09T07:11:17;16.20;99.90
7445;DHT22;3764;48.126;11.594;2022-09-09T07:13:45;16.20;99.90
7445;DHT22;3764;48.126;11.594;2022-09-09T07:16:14;16.30;99.90
7445;DHT22;3764;48.126;11.594;2022-09-09T07:18:42;16.30;99.90
7445;DHT22;3764;48.126;11.594;2022-09-09T07:21:10;16.30;99.90
7445;DHT22;3764;48.126;11.594;2022-09-09T07:23:37;16.30;99.90
7445;DHT22;3764;48.126;11.594;2022-09-09T07:26:08;16.30;99.90
7445;DHT22;3764;48.126;11.594;2022-09-09T07:28:36;16.30;99.90
7445;DHT22;3764;48.126;11.594;2022-09-09T07:31:04;16.40;99.90
7445;DHT22;3764;48.126;11.594;2022-09-09T07:33:34;16.50;99.90
7445;DHT22;3764;48.126;11.594;2022-09-09T07:36:06;16.50;99.90
7445;DHT22;3764;48.126;11.594;2022-09-09T07:38:38;16.60;99.90
7445;DHT22;3764;48.126;11.594;2022-09-09T07:41:08;16.60;99.90
7445;DHT22;3764;48.126;11.594;2022-09-09T07:43:38;16.70;99.90
7445;DHT22;3764;48.126;11.594;2022-09-09T07:46:06;16.70;99.90
7445;DHT22;3764;48.126;11.594;2022-09-09T07:48:34;16.80;99.90
7445;DHT22;3764;48.126;11.594;2022-09-09T07:51:06;16.80;99.90
7445;DHT22;3764;48.126;11.594;2022-09-09T07:53:34;16.80;99.90
7445;DHT22;3764;48.126;11.594;2022-09-09T07:56:07;16.80;99.90
7445;DHT22;3764;48.126;11.594;2022-09-09T07:58:35;16.90;99.90
7445;DHT22;3764;48.126;11.594;2022-09-09T08:01:07;16.90;99.90
7445;DHT22;3764;48.126;11.594;2022-09-09T08:03:36;16.90;99.90
7445;DHT22;3764;48.126;11.594;2022-09-09T08:06:05;16.90;99.90
7445;DHT22;3764;48.126;11.594;2022-09-09T08:08:33;16.90;99.90
7445;DHT22;3764;48.126;11.594;2022-09-09T08:11:09;16.90;99.90
7445;DHT22;3764;48.126;11.594;2022-09-09T08:13:37;17.00;99.90
7445;DHT22;3764;48.126;11.594;2022-09-09T08:16:06;17.10;99.90
7445;DHT22;3764;48.126;11.594;2022-09-09T08:18:33;17.10;99.90
7445;DHT22;3764;48.126;11.594;2022-09-09T08:21:09;17.10;99.90
7445;DHT22;3764;48.126;11.594;2022-09-09T08:23:38;17.10;99.90
7445;DHT22;3764;48.126;11.594;2022-09-09T08:26:09;17.10;99.90
7445;DHT22;3764;48.126;11.594;2022-09-09T08:28:37;17.10;99.90
7445;DHT22;3764;48.126;11.594;2022-09-09T08:31:10;17.10;99.90
7445;DHT22;3764;48.126;11.594;2022-09-09T08:33:38;17.10;99.90
7445;DHT22;3764;48.126;11.594;2022-09-09T08:36:08;17.10;99.90
7445;DHT22;3764;48.126;11.594;2022-09-09T08:38:36;17.10;99.90
7445;DHT22;3764;48.126;11.594;2022-09-09T08:41:37;17.20;99.90
7445;DHT22;3764;48.126;11.594;2022-09-09T08:46:42;17.20;99.90
7445;DHT22;3764;48.126;11.594;2022-09-09T08:49:25;17.20;99.90
7445;DHT22;3764;48.126;11.594;2022-09-09T08:52:04;17.20;99.90
7445;DHT22;3764;48.126;11.594;2022-09-09T08:54:36;17.20;99.90
7445;DHT22;3764;48.126;11.594;2022-09-09T08:57:04;17.20;99.90
7445;DHT22;3764;48.126;11.594;2022-09-09T08:59:38;17.20;99.90
7445;DHT22;3764;48.126;11.594;2022-09-09T09:02:15;17.30;99.90
7445;DHT22;3764;48.126;11.594;2022-09-09T09:04:58;17.30;99.90
7445;DHT22;3764;48.126;11.594;2022-09-09T09:07:41;17.30;99.90
7445;DHT22;3764;48.126;11.594;2022-09-09T09:10:25;17.40;99.90
7445;DHT22;3764;48.126;11.594;2022-09-09T09:12:56;17.40;99.90
7445;DHT22;3764;48.126;11.594;2022-09-09T09:15:25;17.40;99.90
7445;DHT22;3764;48.126;11.594;2022-09-09T09:17:53;17.40;99.90
7445;DHT22;3764;48.126;11.594;2022-09-09T09:20:24;17.50;99.90
7445;DHT22;3764;48.126;11.594;2022-09-09T09:22:56;17.50;99.90
7445;DHT22;3764;48.126;11.594;2022-09-09T09:25:31;17.50;99.90
7445;DHT22;3764;48.126;11.594;2022-09-09T09:28:00;17.50;99.90
7445;DHT22;3764;48.126;11.594;2022-09-09T09:30:35;17.60;99.90
7445;DHT22;3764;48.126;11.594;2022-09-09T09:33:06;17.60;99.90
7445;DHT22;3764;48.126;11.594;2022-09-09T09:35:35;17.60;99.90
7445;DHT22;3764;48.126;11.594;2022-09-09T09:38:15;17.60;99.90
7445;DHT22;3764;48.126;11.594;2022-09-09T09:40:49;17.60;99.90
7445;DHT22;3764;48.126;11.594;2022-09-09T09:43:21;17.60;99.90
7445;DHT22;3764;48.126;11.594;2022-09-09T09:45:50;17.60;99.90
7445;DHT22;3764;48.126;11.594;2022-09-09T09:48:17;17.60;99.90
7445;DHT22;3764;48.126;11.594;2022-09-09T09:50:50;17.50;99.90
7445;DHT22;3764;48.126;11.594;2022-09-09T09:53:26;17.50;99.90
7445;DHT22;3764;48.126;11.594;2022-09-09T09:55:56;17.50;99.90
7445;DHT22;3764;48.126;11.594;2022-09-09T09:58:25;17.50;99.90
7445;DHT22;3764;48.126;11.594;2022-09-09T10:00:53;17.50;99.90
7445;DHT22;3764;48.126;11.594;2022-09-09T10:03:26;17.50;99.90
7445;DHT22;3764;48.126;11.594;2022-09-09T10:05:55;17.50;99.90
7445;DHT22;3764;48.126;11.594;2022-09-09T10:08:26;17.50;99.90
7445;DHT22;3764;48.126;11.594;2022-09-09T10:11:05;17.50;99.90
7445;DHT22;3764;48.126;11.594;2022-09-09T10:13:46;17.50;99.90
7445;DHT22;3764;48.126;11.594;2022-09-09T10:16:31;17.40;99.90
7445;DHT22;3764;48.126;11.594;2022-09-09T10:19:03;17.40;99.90
7445;DHT22;3764;48.126;11.594;2022-09-09T10:21:49;17.40;99.90
7445;DHT22;3764;48.126;11.594;2022-09-09T10:24:51;17.40;99.90
7445;DHT22;3764;48.126;11.594;2022-09-09T10:27:27;17.40;99.90
7445;DHT22;3764;48.126;11.594;2022-09-09T10:30:04;17.40;99.90
7445;DHT22;3764;48.126;11.594;2022-09-09T10:32:46;17.40;99.90
7445;DHT22;3764;48.126;11.594;2022-09-09T10:35:24;17.40;99.90
7445;DHT22;3764;48.126;11.594;2022-09-09T10:38:08;17.40;99.90
7445;DHT22;3764;48.126;11.594;2022-09-09T10:40:43;17.30;99.90
7445;DHT22;3764;48.126;11.594;2022-09-09T10:43:29;17.30;99.90
7445;DHT22;3764;48.126;11.594;2022-09-09T10:46:04;17.30;99.90
7445;DHT22;3764;48.126;11.594;2022-09-09T10:48:50;17.30;99.90
7445;DHT22;3764;48.126;11.594;2022-09-09T10:51:28;17.30;99.90
7445;DHT22;3764;48.126;11.594;2022-09-09T10:54:22;17.30;99.90
7445;DHT22;3764;48.126;11.594;2022-09-09T10:56:58;17.30;99.90
7445;DHT22;3764;48.126;11.594;2022-09-09T10:59:29;17.30;99.90
7445;DHT22;3764;48.126;11.594;2022-09-09T11:02:01;17.30;99.90
7445;DHT22;3764;48.126;11.594;2022-09-09T11:04:38;17.30;99.90
7445;DHT22;3764;48.126;11.594;2022-09-09T11:07:10;17.30;99.90
7445;DHT22;3764;48.126;11.594;2022-09-09T11:09:42;17.40;99.90
7445;DHT22;3764;48.126;11.594;2022-09-09T11:12:18;17.40;99.90
7445;DHT22;3764;48.126;11.594;2022-09-09T11:14:48;17.40;99.90
7445;DHT22;3764;48.126;11.594;2022-09-09T11:17:20;17.50;99.90
7445;DHT22;3764;48.126;11.594;2022-09-09T11:19:47;17.50;99.90
7445;DHT22;3764;48.126;11.594;2022-09-09T11:22:19;17.60;99.90
7445;DHT22;3764;48.126;11.594;2022-09-09T11:24:54;17.60;99.90
7445;DHT22;3764;48.126;11.594;2022-09-09T11:27:31;17.70;99.90
7445;DHT22;3764;48.126;11.594;2022-09-09T11:30:14;17.70;99.90
7445;DHT22;3764;48.126;11.594;2022-09-09T11:33:10;17.70;99.90
7445;DHT22;3764;48.126;11.594;2022-09-09T11:35:55;17.80;99.90
7445;DHT22;3764;48.126;11.594;2022-09-09T11:38:31;17.90;99.90
7445;DHT22;3764;48.126;11.594;2022-09-09T11:41:02;17.90;99.90
7445;DHT22;3764;48.126;11.594;2022-09-09T11:43:39;17.90;99.90
7445;DHT22;3764;48.126;11.594;2022-09-09T11:46:08;18.00;99.90
7445;DHT22;3764;48.126;11.594;2022-09-09T11:48:36;18.00;99.90
7445;DHT22;3764;48.126;11.594;2022-09-09T11:51:06;18.00;99.90
7445;DHT22;3764;48.126;11.594;2022-09-09T11:53:35;18.00;99.90
7445;DHT22;3764;48.126;11.594;2022-09-09T11:56:11;18.10;99.90
7445;DHT22;3764;48.126;11.594;2022-09-09T11:58:42;18.10;99.90
7445;DHT22;3764;48.126;11.594;2022-09-09T12:01:27;18.10;99.90
7445;DHT22;3764;48.126;11.594;2022-09-09T12:06:58;18.20;99.90
7445;DHT22;3764;48.126;11.594;2022-09-09T12:09:43;18.20;99.90
7445;DHT22;3764;48.126;11.594;2022-09-09T12:12:26;18.20;99.90
7445;DHT22;3764;48.126;11.594;2022-09-09T12:15:20;18.20;99.90
7445;DHT22;3764;48.126;11.594;2022-09-09T12:17:49;18.20;99.90
7445;DHT22;3764;48.126;11.594;2022-09-09T12:20:19;18.20;99.90
7445;DHT22;3764;48.126;11.594;2022-09-09T12:25:45;18.20;99.90
7445;DHT22;3764;48.126;11.594;2022-09-09T12:28:17;18.20;99.90
7445;DHT22;3764;48.126;11.594;2022-09-09T12:30:52;18.20;99.90
7445;DHT22;3764;48.126;11.594;2022-09-09T12:33:22;18.20;99.90
7445;DHT22;3764;48.126;11.594;2022-09-09T12:35:53;18.20;99.90
7445;DHT22;3764;48.126;11.594;2022-09-09T12:38:27;18.30;99.90
7445;DHT22;3764;48.126;11.594;2022-09-09T12:40:58;18.30;99.90
7445;DHT22;3764;48.126;11.594;2022-09-09T12:43:27;18.30;99.90
7445;DHT22;3764;48.126;11.594;2022-09-09T12:45:58;18.40;99.90
7445;DHT22;3764;48.126;11.594;2022-09-09T12:48:33;18.30;99.90
7445;DHT22;3764;48.126;11.594;2022-09-09T12:51:02;18.40;99.90
7445;DHT22;3764;48.126;11.594;2022-09-09T12:53:33;18.50;99.90
7445;DHT22;3764;48.126;11.594;2022-09-09T12:56:04;18.50;99.90
7445;DHT22;3764;48.126;11.594;2022-09-09T12:58:33;18.60;99.90
7445;DHT22;3764;48.126;11.594;2022-09-09T13:01:03;18.70;99.90
7445;DHT22;3764;48.126;11.594;2022-09-09T13:03:31;18.70;99.90
7445;DHT22;3764;48.126;11.594;2022-09-09T13:06:10;18.70;99.90
7445;DHT22;3764;48.126;11.594;2022-09-09T13:08:38;18.70;99.90
7445;DHT22;3764;48.126;11.594;2022-09-09T13:11:09;18.70;99.90
7445;DHT22;3764;48.126;11.594;2022-09-09T13:13:40;18.70;99.90
7445;DHT22;3764;48.126;11.594;2022-09-09T13:16:23;18.70;99.90
7445;DHT22;3764;48.126;11.594;2022-09-09T13:18:52;18.60;99.90
7445;DHT22;3764;48.126;11.594;2022-09-09T13:21:32;18.60;99.90
7445;DHT22;3764;48.126;11.594;2022-09-09T13:24:00;18.50;99.90
7445;DHT22;3764;48.126;11.594;2022-09-09T13:26:29;18.50;99.90
7445;DHT22;3764;48.126;11.594;2022-09-09T13:29:08;18.50;99.90
7445;DHT22;3764;48.126;11.594;2022-09-09T13:31:44;18.50;99.90
7445;DHT22;3764;48.126;11.594;2022-09-09T13:34:12;18.50;99.90
7445;DHT22;3764;48.126;11.594;2022-09-09T13:36:40;18.50;99.90
7445;DHT22;3764;48.126;11.594;2022-09-09T13:39:16;18.40;99.90
7445;DHT22;3764;48.126;11.594;2022-09-09T13:41:45;18.40;99.90
7445;DHT22;3764;48.126;11.594;2022-09-09T13:44:21;18.40;99.90
7445;DHT22;3764;48.126;11.594;2022-09-09T13:47:02;18.40;99.90
7445;DHT22;3764;48.126;11.594;2022-09-09T13:49:30;18.30;99.90
7445;DHT22;3764;48.126;11.594;2022-09-09T13:52:09;18.30;99.90
7445;DHT22;3764;48.126;11.594;2022-09-09T13:54:37;18.30;99.90
7445;DHT22;3764;48.126;11.594;2022-09-09T13:57:05;18.20;99.90
7445;DHT22;3764;48.126;11.594;2022-09-09T13:59:32;18.20;99.90
7445;DHT22;3764;48.126;11.594;2022-09-09T14:02:01;18.10;99.90
7445;DHT22;3764;48.126;11.594;2022-09-09T14:04:28;18.10;99.90
7445;DHT22;3764;48.126;11.594;2022-09-09T14:06:56;18.10;99.90
7445;DHT22;3764;48.126;11.594;2022-09-09T14:09:23;18.00;99.90
7445;DHT22;3764;48.126;11.594;2022-09-09T14:11:50;18.00;99.90
7445;DHT22;3764;48.126;11.594;2022-09-09T14:14:18;18.00;99.90
7445;DHT22;3764;48.126;11.594;2022-09-09T14:16:45;18.00;99.90
7445;DHT22;3764;48.126;11.594;2022-09-09T14:19:14;18.00;99.90
7445;DHT22;3764;48.126;11.594;2022-09-09T14:21:41;18.00;99.90
7445;DHT22;3764;48.126;11.594;2022-09-09T14:24:08;18.00;99.90
7445;DHT22;3764;48.126;11.594;2022-09-09T14:26:35;17.90;99.90
7445;DHT22;3764;48.126;11.594;2022-09-09T14:29:02;17.90;99.90
7445;DHT22;3764;48.126;11.594;2022-09-09T14:31:29;17.90;99.90
7445;DHT22;3764;48.126;11.594;2022-09-09T14:33:57;17.90;99.90
7445;DHT22;3764;48.126;11.594;2022-09-09T14:36:26;17.90;99.90
7445;DHT22;3764;48.126;11.594;2022-09-09T14:38:53;17.90;99.90
7445;DHT22;3764;48.126;11.594;2022-09-09T14:41:20;17.80;99.90
7445;DHT22;3764;48.126;11.594;2022-09-09T14:43:48;17.80;99.90
7445;DHT22;3764;48.126;11.594;2022-09-09T14:46:17;17.80;99.90
7445;DHT22;3764;48.126;11.594;2022-09-09T14:48:44;17.80;99.90
7445;DHT22;3764;48.126;11.594;2022-09-09T14:51:16;17.80;99.90
7445;DHT22;3764;48.126;11.594;2022-09-09T14:53:46;17.80;99.90
7445;DHT22;3764;48.126;11.594;2022-09-09T14:56:15;17.80;99.90
7445;DHT22;3764;48.126;11.594;2022-09-09T14:58:42;17.80;99.90
7445;DHT22;3764;48.126;11.594;2022-09-09T15:01:12;17.80;99.90
7445;DHT22;3764;48.126;11.594;2022-09-09T15:03:40;17.80;99.90
7445;DHT22;3764;48.126;11.594;2022-09-09T15:06:10;17.80;99.90
7445;DHT22;3764;48.126;11.594;2022-09-09T15:08:41;17.80;99.90
7445;DHT22;3764;48.126;11.594;2022-09-09T15:11:11;17.80;99.90
7445;DHT22;3764;48.126;11.594;2022-09-09T15:13:40;17.80;99.90
7445;DHT22;3764;48.126;11.594;2022-09-09T15:16:10;17.80;99.90
7445;DHT22;3764;48.126;11.594;2022-09-09T15:18:38;17.80;99.90
7445;DHT22;3764;48.126;11.594;2022-09-09T15:21:09;17.80;99.90
7445;DHT22;3764;48.126;11.594;2022-09-09T15:23:37;17.80;99.90
7445;DHT22;3764;48.126;11.594;2022-09-09T15:26:05;17.80;99.90
7445;DHT22;3764;48.126;11.594;2022-09-09T15:28:36;17.80;99.90
7445;DHT22;3764;48.126;11.594;2022-09-09T15:31:06;17.80;99.90
7445;DHT22;3764;48.126;11.594;2022-09-09T15:33:34;17.80;99.90
7445;DHT22;3764;48.126;11.594;2022-09-09T15:36:13;17.80;99.90
7445;DHT22;3764;48.126;11.594;2022-09-09T15:38:40;17.80;99.90
7445;DHT22;3764;48.126;11.594;2022-09-09T15:41:08;17.80;99.90
7445;DHT22;3764;48.126;11.594;2022-09-09T15:43:36;17.80;99.90
7445;DHT22;3764;48.126;11.594;2022-09-09T15:46:21;17.80;99.90
7445;DHT22;3764;48.126;11.594;2022-09-09T15:48:50;17.80;99.90
7445;DHT22;3764;48.126;11.594;2022-09-09T15:51:17;17.80;99.90
7445;DHT22;3764;48.126;11.594;2022-09-09T15:53:46;17.80;99.90
7445;DHT22;3764;48.126;11.594;2022-09-09T15:56:13;17.80;99.90
7445;DHT22;3764;48.126;11.594;2022-09-09T15:58:42;17.90;99.90
7445;DHT22;3764;48.126;11.594;2022-09-09T16:01:10;17.90;99.90
7445;DHT22;3764;48.126;11.594;2022-09-09T16:03:39;17.90;99.90
7445;DHT22;3764;48.126;11.594;2022-09-09T16:06:07;17.90;99.90
7445;DHT22;3764;48.126;11.594;2022-09-09T16:08:35;17.90;99.90
7445;DHT22;3764;48.126;11.594;2022-09-09T16:11:07;17.90;99.90
7445;DHT22;3764;48.126;11.594;2022-09-09T16:13:35;17.90;99.90
7445;DHT22;3764;48.126;11.594;2022-09-09T16:16:04;17.80;99.90
7445;DHT22;3764;48.126;11.594;2022-09-09T16:18:35;17.70;99.90
7445;DHT22;3764;48.126;11.594;2022-09-09T16:21:03;17.70;99.90
7445;DHT22;3764;48.126;11.594;2022-09-09T16:23:31;17.70;99.90